createdAt,value
2024-01-21T00:00:35.731Z,5.89
2024-01-21T00:03:43.313Z,5.79
2024-01-21T00:06:30.111Z,7.35
2024-01-21T00:09:16.693Z,8.39
2024-01-21T00:12:03.400Z,8.98
2024-01-21T00:14:50.164Z,8.72
2024-01-21T00:17:37.067Z,7.39
2024-01-21T00:20:23.379Z,6.34
2024-01-21T00:23:10.028Z,7.38
2024-01-21T00:25:56.877Z,8.65
2024-01-21T00:28:43.385Z,8.60
2024-01-21T00:31:30.885Z,7.03
2024-01-21T00:34:17.419Z,6.06
2024-01-21T00:37:04.187Z,7.19
2024-01-21T00:39:50.893Z,8.65
2024-01-21T00:42:38.054Z,8.50
2024-01-21T00:45:24.648Z,7.06
2024-01-21T00:48:11.390Z,6.55
2024-01-21T00:50:57.767Z,7.97
2024-01-21T00:53:46.067Z,8.72
2024-01-21T00:56:32.454Z,8.78
2024-01-21T00:59:18.755Z,7.55
2024-01-21T01:02:05.302Z,6.34
2024-01-21T01:04:51.602Z,6.04
2024-01-21T01:07:38.452Z,7.69
2024-01-21T01:10:25.289Z,8.75
2024-01-21T01:13:11.793Z,8.77
2024-01-21T01:16:01.873Z,7.51
2024-01-21T01:18:48.395Z,6.52
2024-01-21T01:21:36.349Z,7.43
2024-01-21T01:24:22.886Z,8.60
2024-01-21T01:27:10.674Z,8.92
2024-01-21T01:29:57.130Z,7.71
2024-01-21T01:32:43.567Z,6.59
2024-01-21T01:35:30.352Z,7.20
2024-01-21T01:38:17.324Z,8.23
2024-01-21T01:41:04.041Z,9.10
2024-01-21T01:43:51.212Z,8.52
2024-01-21T01:46:38.167Z,7.08
2024-01-21T01:49:24.991Z,6.06
2024-01-21T01:52:14.311Z,5.35
2024-01-21T01:55:00.771Z,5.78
2024-01-21T01:57:48.277Z,7.46
2024-01-21T02:00:34.605Z,8.57
2024-01-21T02:03:26.090Z,8.38
2024-01-21T02:06:12.803Z,6.99
2024-01-21T02:08:59.588Z,6.23
2024-01-21T02:11:46.013Z,7.64
2024-01-21T02:14:32.644Z,8.84
2024-01-21T02:17:19.225Z,8.80
2024-01-21T02:20:08.537Z,7.32
2024-01-21T02:23:01.003Z,6.10
2024-01-21T02:25:47.705Z,5.93
2024-01-21T02:28:34.180Z,7.67
2024-01-21T02:31:20.745Z,9.03
2024-01-21T02:34:07.131Z,7.96
2024-01-21T02:36:54.054Z,6.52
2024-01-21T02:39:40.482Z,5.61
2024-01-21T02:42:27.487Z,6.39
2024-01-21T02:45:14.661Z,8.08
2024-01-21T02:48:01.968Z,8.54
2024-01-21T02:50:48.993Z,7.27
2024-01-21T02:53:35.570Z,6.02
2024-01-21T02:56:25.623Z,6.04
2024-01-21T02:59:12.005Z,7.36
2024-01-21T03:01:59.065Z,8.06
2024-01-21T03:04:45.593Z,8.11
2024-01-21T03:07:32.239Z,6.81
2024-01-21T03:10:18.816Z,5.98
2024-01-21T03:13:05.627Z,7.29
2024-01-21T03:15:52.664Z,8.21
2024-01-21T03:18:40.461Z,7.92
2024-01-21T03:21:27.516Z,6.52
2024-01-21T03:24:14.193Z,5.78
2024-01-21T03:27:00.704Z,6.92
2024-01-21T03:29:47.637Z,7.87
2024-01-21T03:32:33.979Z,7.98
2024-01-21T03:35:20.474Z,6.80
2024-01-21T03:38:07.763Z,5.60
2024-01-21T03:40:54.339Z,4.86
2024-01-21T03:43:40.833Z,5.90
2024-01-21T03:46:27.403Z,7.47
2024-01-21T03:49:13.797Z,7.14
2024-01-21T03:52:00.186Z,5.94
2024-01-21T03:54:46.885Z,5.06
2024-01-21T03:57:33.465Z,5.49
2024-01-21T04:00:20.343Z,7.19
2024-01-21T04:03:07.124Z,8.12
2024-01-21T04:05:53.631Z,8.15
2024-01-21T04:08:40.245Z,6.86
2024-01-21T04:11:27.168Z,5.71
2024-01-21T04:14:13.764Z,5.57
2024-01-21T04:17:00.232Z,6.96
2024-01-21T04:19:47.484Z,7.78
2024-01-21T04:22:34.599Z,6.67
2024-01-21T04:25:21.225Z,5.43
2024-01-21T04:28:07.599Z,4.82
2024-01-21T04:30:54.609Z,5.88
2024-01-21T04:33:41.411Z,7.31
2024-01-21T04:36:28.261Z,7.77
2024-01-21T04:39:18.633Z,6.61
2024-01-21T04:42:05.773Z,5.25
2024-01-21T04:44:52.476Z,5.58
2024-01-21T04:47:39.528Z,7.34
2024-01-21T04:50:26.274Z,7.35
2024-01-21T04:53:13.083Z,6.06
2024-01-21T04:55:59.991Z,5.02
2024-01-21T04:58:47.428Z,4.74
2024-01-21T05:01:35.045Z,6.09
2024-01-21T05:04:21.865Z,7.25
2024-01-21T05:07:08.295Z,6.64
2024-01-21T05:09:55.150Z,5.37
2024-01-21T05:12:41.800Z,4.45
2024-01-21T05:15:28.500Z,4.66
2024-01-21T05:18:14.744Z,6.31
2024-01-21T05:21:01.376Z,7.39
2024-01-21T05:23:52.396Z,6.57
2024-01-21T05:26:45.484Z,5.24
2024-01-21T05:29:34.792Z,4.39
2024-01-21T05:32:23.483Z,4.51
2024-01-21T05:35:12.160Z,6.15
2024-01-21T05:37:58.578Z,7.33
2024-01-21T05:40:45.548Z,7.58
2024-01-21T05:43:32.075Z,6.32
2024-01-21T05:46:18.642Z,5.14
2024-01-21T05:49:05.680Z,4.98
2024-01-21T05:51:52.589Z,6.47
2024-01-21T05:54:40.367Z,7.61
2024-01-21T05:57:27.308Z,7.74
2024-01-21T06:00:14.651Z,6.51
2024-01-21T06:03:01.523Z,5.39
2024-01-21T06:05:48.420Z,4.61
2024-01-21T06:08:35.769Z,4.61
2024-01-21T06:11:22.468Z,6.23
2024-01-21T06:14:09.559Z,7.33
2024-01-21T06:16:56.887Z,7.87
2024-01-21T06:19:43.521Z,6.77
2024-01-21T06:22:30.374Z,5.60
2024-01-21T06:25:18.427Z,4.76
2024-01-21T06:28:05.409Z,4.83
2024-01-21T06:30:52.043Z,6.20
2024-01-21T06:33:39.982Z,7.53
2024-01-21T06:36:26.917Z,7.86
2024-01-21T06:39:13.957Z,6.55
2024-01-21T06:42:02.723Z,5.36
2024-01-21T06:44:49.204Z,4.55
2024-01-21T06:47:36.141Z,4.64
2024-01-21T06:50:22.932Z,6.36
2024-01-21T06:53:09.598Z,7.27
2024-01-21T06:55:55.968Z,6.10
2024-01-21T06:58:42.470Z,4.97
2024-01-21T07:01:29.067Z,4.71
2024-01-21T07:04:16.656Z,6.29
2024-01-21T07:07:03.174Z,7.33
2024-01-21T07:09:49.955Z,6.76
2024-01-21T07:12:36.527Z,5.36
2024-01-21T07:15:24.277Z,4.25
2024-01-21T07:18:10.961Z,4.15
2024-01-21T07:20:57.996Z,5.67
2024-01-21T07:23:45.036Z,6.80
2024-01-21T07:26:31.720Z,7.05
2024-01-21T07:29:18.442Z,5.83
2024-01-21T07:32:05.223Z,4.67
2024-01-21T07:34:51.990Z,3.85
2024-01-21T07:37:38.661Z,4.53
2024-01-21T07:40:25.021Z,6.33
2024-01-21T07:43:11.910Z,7.48
2024-01-21T07:45:58.425Z,6.50
2024-01-21T07:48:45.204Z,5.14
2024-01-21T07:51:32.210Z,4.23
2024-01-21T07:54:18.839Z,5.01
2024-01-21T07:57:06.461Z,6.52
2024-01-21T07:59:53.541Z,6.83
2024-01-21T08:02:40.154Z,5.56
2024-01-21T08:05:26.539Z,4.74
2024-01-21T08:08:13.484Z,5.86
2024-01-21T08:10:59.979Z,7.01
2024-01-21T08:13:46.634Z,6.34
2024-01-21T08:16:33.397Z,5.35
2024-01-21T08:19:21.853Z,6.33
2024-01-21T08:22:10.329Z,7.25
2024-01-21T08:24:57.494Z,6.12
2024-01-21T08:27:44.186Z,5.08
2024-01-21T08:30:30.889Z,5.26
2024-01-21T08:33:21.150Z,6.36
2024-01-21T08:36:09.249Z,6.22
2024-01-21T08:38:55.845Z,4.96
2024-01-21T08:41:42.507Z,4.12
2024-01-21T08:44:28.924Z,4.09
2024-01-21T08:47:15.715Z,5.70
2024-01-21T08:50:02.700Z,6.65
2024-01-21T08:52:49.517Z,6.49
2024-01-21T08:55:36.775Z,5.33
2024-01-21T08:58:23.451Z,4.53
2024-01-21T09:01:10.121Z,4.76
2024-01-21T09:03:57.066Z,6.49
2024-01-21T09:06:44.067Z,6.63
2024-01-21T09:09:36.283Z,5.37
2024-01-21T09:12:22.827Z,4.46
2024-01-21T09:15:10.278Z,3.88
2024-01-21T09:17:56.910Z,4.45
2024-01-21T09:20:43.589Z,6.19
2024-01-21T09:23:30.411Z,6.92
2024-01-21T09:26:17.225Z,6.00
2024-01-21T09:29:04.636Z,5.17
2024-01-21T09:31:58.293Z,4.64
2024-01-21T09:34:45.940Z,4.84
2024-01-21T09:37:33.049Z,5.84
2024-01-21T09:40:19.874Z,5.18
2024-01-21T09:43:07.863Z,4.42
2024-01-21T09:45:54.886Z,3.82
2024-01-21T09:48:41.929Z,3.58
2024-01-21T09:51:31.198Z,4.90
2024-01-21T09:54:18.764Z,5.41
2024-01-21T09:57:07.334Z,4.57
2024-01-21T09:59:54.023Z,4.03
2024-01-21T10:02:43.508Z,3.79
2024-01-21T10:05:30.061Z,5.23
2024-01-21T10:08:16.749Z,6.12
2024-01-21T10:11:05.975Z,5.30
2024-01-21T10:13:52.828Z,4.42
2024-01-21T10:16:44.126Z,3.89
2024-01-21T10:19:33.449Z,3.58
2024-01-21T10:22:22.787Z,3.40
2024-01-21T10:25:10.266Z,3.88
2024-01-21T10:27:57.096Z,5.66
2024-01-21T10:30:47.528Z,5.52
2024-01-21T10:33:34.085Z,5.04
2024-01-21T10:36:22.685Z,4.78
2024-01-21T10:39:15.657Z,4.70
2024-01-21T10:42:02.683Z,4.72
2024-01-21T10:44:51.141Z,4.72
2024-01-21T10:47:43.234Z,4.67
2024-01-21T10:50:29.578Z,4.62
2024-01-21T10:53:17.452Z,4.44
2024-01-21T10:56:04.949Z,4.28
2024-01-21T10:58:52.036Z,4.11
2024-01-21T11:01:41.541Z,3.91
2024-01-21T11:04:28.156Z,3.78
2024-01-21T11:07:18.052Z,3.72
2024-01-21T11:10:06.264Z,3.70
2024-01-21T11:12:58.160Z,3.62
2024-01-21T11:15:48.809Z,3.67
2024-01-21T11:18:35.652Z,3.79
2024-01-21T11:21:24.018Z,3.80
2024-01-21T11:24:14.640Z,3.81
2024-01-21T11:27:02.828Z,3.79
2024-01-21T11:29:54.006Z,3.78
2024-01-21T11:32:42.697Z,3.85
2024-01-21T11:35:30.593Z,3.87
2024-01-21T11:38:17.467Z,3.86
2024-01-21T11:41:05.682Z,3.84
2024-01-21T11:43:52.711Z,3.82
2024-01-21T11:46:40.570Z,3.78
2024-01-21T11:49:27.124Z,3.75
2024-01-21T11:52:16.131Z,3.62
2024-01-21T11:55:03.743Z,3.55
2024-01-21T11:57:50.677Z,3.49
2024-01-21T12:00:37.230Z,3.47
2024-01-21T12:03:24.053Z,3.46
2024-01-21T12:06:11.995Z,3.45
2024-01-21T12:09:01.931Z,3.42
2024-01-21T12:11:51.000Z,3.46
2024-01-21T12:14:38.152Z,3.55
2024-01-21T12:17:24.626Z,3.58
2024-01-21T12:20:12.313Z,3.61
2024-01-21T12:22:59.149Z,3.61
2024-01-21T12:25:47.070Z,3.52
2024-01-21T12:28:33.726Z,3.47
2024-01-21T12:31:22.086Z,3.48
2024-01-21T12:34:11.405Z,3.48
2024-01-21T12:36:57.990Z,3.46
2024-01-21T12:39:44.694Z,3.49
2024-01-21T12:42:31.148Z,3.53
2024-01-21T12:45:17.733Z,3.56
2024-01-21T12:48:05.628Z,3.56
2024-01-21T12:50:52.036Z,3.54
2024-01-21T12:53:39.278Z,3.51
2024-01-21T12:56:26.205Z,3.46
2024-01-21T12:59:15.083Z,3.42
2024-01-21T13:02:02.174Z,3.38
2024-01-21T13:04:48.744Z,3.30
2024-01-21T13:07:35.668Z,3.25
2024-01-21T13:10:22.718Z,3.23
2024-01-21T13:13:09.761Z,3.18
2024-01-21T13:15:57.032Z,3.16
2024-01-21T13:18:43.707Z,3.13
2024-01-21T13:21:31.474Z,3.12
2024-01-21T13:24:18.191Z,3.11
2024-01-21T13:27:10.754Z,3.10
2024-01-21T13:30:16.715Z,3.08
2024-01-21T13:33:03.074Z,3.07
2024-01-21T13:35:50.823Z,3.06
2024-01-21T13:38:37.869Z,3.06
2024-01-21T13:41:24.454Z,3.03
2024-01-21T13:44:11.033Z,3.01
2024-01-21T13:46:58.646Z,3.00
2024-01-21T13:49:45.422Z,2.98
2024-01-21T13:52:32.495Z,2.93
2024-01-21T13:55:19.263Z,2.87
2024-01-21T13:58:06.366Z,2.83
2024-01-21T14:00:53.493Z,2.81
2024-01-21T14:03:40.815Z,2.77
2024-01-21T14:06:27.663Z,2.74
2024-01-21T14:09:16.001Z,2.71
2024-01-21T14:12:02.529Z,2.70
2024-01-21T14:14:48.823Z,2.91
2024-01-21T14:17:35.644Z,4.89
2024-01-21T14:20:22.237Z,6.20
2024-01-21T14:23:08.993Z,5.46
2024-01-21T14:26:00.443Z,4.71
2024-01-21T14:28:47.690Z,4.14
2024-01-21T14:31:34.098Z,3.79
2024-01-21T14:34:20.570Z,3.53
2024-01-21T14:37:07.391Z,3.31
2024-01-21T14:39:54.153Z,3.15
2024-01-21T14:42:41.048Z,3.03
2024-01-21T14:45:28.537Z,2.93
2024-01-21T14:48:16.029Z,3.77
2024-01-21T14:51:02.703Z,5.72
2024-01-21T14:53:49.710Z,6.08
2024-01-21T14:56:36.480Z,5.14
2024-01-21T14:59:24.243Z,4.42
2024-01-21T15:02:10.997Z,3.96
2024-01-21T15:04:57.802Z,3.64
2024-01-21T15:07:48.617Z,3.36
2024-01-21T15:10:35.793Z,3.16
2024-01-21T15:13:26.532Z,3.03
2024-01-21T15:16:13.202Z,4.26
2024-01-21T15:19:00.434Z,6.06
2024-01-21T15:21:47.653Z,6.62
2024-01-21T15:24:34.825Z,5.75
2024-01-21T15:27:22.722Z,4.89
2024-01-21T15:30:09.967Z,4.24
2024-01-21T15:32:57.263Z,3.82
2024-01-21T15:35:43.810Z,3.50
2024-01-21T15:38:30.581Z,3.43
2024-01-21T15:41:17.201Z,4.98
2024-01-21T15:44:05.030Z,5.68
2024-01-21T15:46:51.438Z,4.92
2024-01-21T15:49:39.585Z,4.30
2024-01-21T15:52:26.869Z,3.83
2024-01-21T15:55:14.924Z,3.48
2024-01-21T15:58:01.894Z,3.25
2024-01-21T16:00:48.921Z,3.48
2024-01-21T16:03:35.953Z,5.16
2024-01-21T16:06:22.450Z,5.78
2024-01-21T16:09:09.512Z,4.96
2024-01-21T16:11:56.682Z,4.27
2024-01-21T16:14:47.224Z,3.80
2024-01-21T16:17:33.997Z,3.49
2024-01-21T16:20:22.555Z,4.30
2024-01-21T16:23:11.703Z,5.99
2024-01-21T16:25:58.294Z,5.89
2024-01-21T16:28:44.844Z,5.02
2024-01-21T16:31:32.764Z,4.35
2024-01-21T16:34:19.046Z,3.92
2024-01-21T16:37:05.953Z,3.88
2024-01-21T16:39:53.228Z,5.49
2024-01-21T16:42:40.155Z,6.58
2024-01-21T16:45:30.653Z,5.76
2024-01-21T16:48:17.433Z,4.87
2024-01-21T16:51:09.162Z,4.21
2024-01-21T16:53:55.985Z,3.80
2024-01-21T16:56:42.767Z,4.76
2024-01-21T16:59:30.445Z,6.35
2024-01-21T17:02:19.074Z,6.58
2024-01-21T17:05:06.470Z,5.38
2024-01-21T17:07:53.589Z,4.56
2024-01-21T17:10:46.780Z,4.02
2024-01-21T17:13:33.780Z,3.76
2024-01-21T17:16:20.263Z,5.09
2024-01-21T17:19:07.498Z,6.54
2024-01-21T17:21:55.079Z,6.43
2024-01-21T17:24:41.582Z,5.41
2024-01-21T17:27:27.811Z,4.60
2024-01-21T17:30:14.754Z,3.99
2024-01-21T17:33:02.012Z,3.84
2024-01-21T17:35:48.407Z,5.34
2024-01-21T17:38:34.806Z,6.44
2024-01-21T17:41:24.852Z,5.55
2024-01-21T17:44:12.276Z,4.68
2024-01-21T17:46:58.937Z,4.09
2024-01-21T17:49:45.492Z,3.64
2024-01-21T17:52:33.182Z,3.93
2024-01-21T17:55:20.294Z,5.48
2024-01-21T17:58:07.175Z,6.10
2024-01-21T18:00:54.480Z,5.23
2024-01-21T18:03:41.180Z,4.35
2024-01-21T18:06:29.473Z,3.79
2024-01-21T18:09:17.981Z,3.51
2024-01-21T18:12:08.757Z,4.76
2024-01-21T18:14:55.273Z,5.82
2024-01-21T18:17:42.156Z,5.04
2024-01-21T18:20:28.981Z,4.22
2024-01-21T18:23:15.814Z,3.70
2024-01-21T18:26:02.684Z,4.38
2024-01-21T18:28:59.005Z,5.40
2024-01-21T18:31:55.124Z,4.78
2024-01-21T18:34:42.271Z,4.12
2024-01-21T18:37:29.070Z,3.56
2024-01-21T18:40:15.869Z,3.98
2024-01-21T18:43:03.122Z,5.38
2024-01-21T18:45:49.708Z,5.28
2024-01-21T18:48:36.964Z,4.43
2024-01-21T18:51:23.879Z,3.73
2024-01-21T18:54:12.296Z,3.29
2024-01-21T18:56:58.821Z,3.47
2024-01-21T18:59:50.331Z,4.90
2024-01-21T19:02:37.593Z,4.99
2024-01-21T19:05:24.260Z,4.12
2024-01-21T19:08:10.584Z,3.50
2024-01-21T19:10:57.140Z,3.07
2024-01-21T19:13:44.822Z,3.50
2024-01-21T19:16:31.344Z,5.01
2024-01-21T19:19:18.267Z,6.09
2024-01-21T19:22:04.978Z,5.43
2024-01-21T19:24:51.298Z,4.44
2024-01-21T19:27:38.542Z,3.67
2024-01-21T19:30:24.985Z,3.19
2024-01-21T19:33:11.812Z,2.87
2024-01-21T19:35:58.568Z,3.77
2024-01-21T19:38:45.516Z,5.26
2024-01-21T19:41:32.873Z,5.09
2024-01-21T19:45:03.672Z,4.14
2024-01-21T19:47:50.625Z,3.34
2024-01-21T19:50:37.016Z,2.92
2024-01-21T19:53:24.313Z,2.63
2024-01-21T19:56:11.285Z,2.87
2024-01-21T19:58:57.793Z,4.73
2024-01-21T20:01:45.348Z,4.94
2024-01-21T20:04:31.872Z,4.04
2024-01-21T20:07:22.894Z,3.41
2024-01-21T20:10:10.229Z,2.98
2024-01-21T20:12:57.248Z,2.69
2024-01-21T20:15:44.618Z,2.48
2024-01-21T20:18:32.599Z,2.33
2024-01-21T20:21:19.730Z,3.17
2024-01-21T20:24:07.665Z,4.29
2024-01-21T20:26:55.600Z,3.74
2024-01-21T20:29:42.584Z,3.13
2024-01-21T20:32:29.593Z,2.76
2024-01-21T20:35:16.472Z,2.49
2024-01-21T20:38:03.227Z,2.41
2024-01-21T20:40:50.447Z,3.82
2024-01-21T20:43:38.971Z,4.80
2024-01-21T20:46:25.919Z,4.10
2024-01-21T20:49:12.864Z,3.45
2024-01-21T20:51:59.338Z,3.00
2024-01-21T20:54:47.920Z,2.65
2024-01-21T20:57:34.605Z,2.40
2024-01-21T21:00:22.316Z,2.24
2024-01-21T21:03:10.546Z,2.24
2024-01-21T21:05:57.794Z,3.77
2024-01-21T21:08:45.074Z,4.46
2024-01-21T21:11:32.156Z,3.78
2024-01-21T21:14:20.840Z,3.23
2024-01-21T21:17:08.990Z,2.84
2024-01-21T21:19:55.739Z,2.59
2024-01-21T21:22:42.954Z,2.41
2024-01-21T21:25:30.156Z,2.27
2024-01-21T21:28:16.527Z,2.16
2024-01-21T21:31:04.747Z,2.08
2024-01-21T21:33:51.651Z,1.99
2024-01-21T21:36:38.450Z,1.93
2024-01-21T21:39:25.492Z,1.88
2024-01-21T21:42:12.156Z,1.83
2024-01-21T21:44:58.625Z,1.77
2024-01-21T21:47:47.505Z,1.74
2024-01-21T21:50:35.559Z,1.71
2024-01-21T21:53:22.275Z,1.70
2024-01-21T21:56:09.070Z,1.69
2024-01-21T21:58:56.911Z,1.67
2024-01-21T22:01:44.468Z,1.67
2024-01-21T22:04:31.515Z,1.67
2024-01-21T22:07:18.682Z,1.67
2024-01-21T22:10:06.400Z,1.67
2024-01-21T22:12:52.933Z,1.66
2024-01-21T22:15:40.623Z,1.66
2024-01-21T22:18:28.821Z,1.68
2024-01-21T22:21:19.155Z,1.68
2024-01-21T22:24:06.288Z,1.70
2024-01-21T22:26:53.184Z,1.72
2024-01-21T22:29:39.918Z,1.76
2024-01-21T22:32:26.854Z,1.76
2024-01-21T22:35:13.499Z,1.75
2024-01-21T22:38:00.224Z,1.75
2024-01-21T22:40:46.782Z,1.78
2024-01-21T22:43:33.561Z,1.83
2024-01-21T22:46:20.246Z,1.85
2024-01-21T22:49:07.262Z,1.88
2024-01-21T22:51:55.255Z,1.91
2024-01-21T22:54:42.193Z,1.95
2024-01-21T22:57:28.867Z,1.99
2024-01-21T23:00:22.574Z,2.00
2024-01-21T23:03:09.183Z,2.03
2024-01-21T23:05:57.808Z,2.05
2024-01-21T23:08:44.323Z,2.08
2024-01-21T23:11:30.971Z,2.11
2024-01-21T23:14:17.684Z,2.13
2024-01-21T23:17:04.655Z,2.15
2024-01-21T23:19:51.326Z,2.17
2024-01-21T23:22:38.448Z,2.18
2024-01-21T23:25:25.383Z,2.20
2024-01-21T23:28:12.036Z,2.23
2024-01-21T23:31:01.296Z,2.25
2024-01-21T23:33:47.964Z,2.26
2024-01-21T23:36:34.749Z,2.28
2024-01-21T23:39:22.923Z,2.30
2024-01-21T23:42:09.661Z,2.32
2024-01-21T23:44:56.679Z,2.33
2024-01-21T23:47:43.577Z,2.33
2024-01-21T23:50:30.457Z,2.30
2024-01-21T23:53:18.863Z,2.27
2024-01-21T23:56:06.107Z,2.25
2024-01-21T23:58:52.808Z,2.23
